EST,Max TemperatureF,Mean TemperatureF,Min TemperatureF,Max Dew PointF,MeanDew PointF,Min DewpointF,Max Humidity, Mean Humidity, Min Humidity, Max Sea Level PressureIn, Mean Sea Level PressureIn, Min Sea Level PressureIn, Max VisibilityMiles, Mean VisibilityMiles, Min VisibilityMiles, Max Wind SpeedMPH, Mean Wind SpeedMPH, Max Gust SpeedMPH,PrecipitationIn, CloudCover, Events, WindDirDegrees
2012-12-1,66,52,37,52,44,37,100,78,45,30.40,30.34,30.31,10,9,5,9,0,,0.00,3,,173
2012-12-2,68,57,46,53,50,45,97,81,55,30.39,30.32,30.26,10,10,6,8,1,,0.00,2,,260
2012-12-3,73,57,41,53,46,41,100,88,41,30.33,30.29,30.23,10,4,0,9,1,,0.00,2,Fog,236
2012-12-4,71,62,53,59,53,50,93,77,51,30.34,30.26,30.20,10,10,10,12,2,17,0.00,4,,234
2012-12-5,68,60,51,58,53,45,97,80,60,30.20,30.16,30.10,10,10,9,13,4,,0.00,7,Rain,288
2012-12-6,57,46,35,45,38,27,70,57,40,30.25,30.18,29.95,12,10,10,13,9,17,0.00,8,,60
2012-12-7,60,52,44,48,43,35,97,75,59,30.17,30.09,30.01,10,10,7,10,4,,0.00,6,Rain,47
2012-12-8,64,53,42,56,48,43,100,93,70,30.06,30.04,30.01,10,5,0,9,1,,0.01,7,Fog-Rain,205
2012-12-9,69,62,55,59,57,55,100,91,68,30.12,30.05,29.98,10,6,0,10,2,,0.01,5,Fog,180
2012-12-10,66,60,55,61,58,55,100,96,75,29.99,29.82,29.73,10,6,0,17,5,21,0.22,8,Fog-Rain,211
2012-12-11,60,51,42,59,44,35,100,78,63,30.12,29.93,29.76,10,10,10,12,7,18,0.00,2,,254
2012-12-12,48,46,44,40,36,32,77,67,58,30.27,30.21,30.13,10,10,9,14,9,22,0.01,6,Rain,54
2012-12-13,54,46,34,34,30,26,82,56,41,30.38,30.31,30.25,10,10,10,14,8,21,0.00,5,,53
2012-12-14,57,42,28,34,30,25,89,67,35,30.40,30.31,30.24,10,10,10,6,1,,0.00,0,,253
2012-12-15,60,48,37,42,37,33,93,69,42,30.26,30.18,30.08,10,10,8,6,1,,0.00,3,,183
2012-12-16,55,52,48,54,50,43,100,92,76,30.07,29.99,29.92,10,6,2,7,1,,0.72,8,Rain,321
2012-12-17,57,54,51,56,53,52,100,99,94,29.93,29.82,29.70,10,6,0,12,5,17,0.14,7,Fog-Rain,206
2012-12-18,60,50,41,52,39,27,100,66,28,29.99,29.85,29.71,10,10,10,16,9,24,0.01,0,,254
2012-12-19,66,50,35,44,39,32,92,67,39,30.09,30.04,29.99,10,10,10,13,4,17,0.00,0,,218
2012-12-20,53,46,39,54,46,30,100,92,60,30.08,29.80,29.64,10,7,1,23,5,38,0.96,6,Rain,329
2012-12-21,46,41,36,31,22,16,62,49,37,30.01,29.88,29.77,10,10,9,26,18,40,0.00,1,,272
2012-12-22,59,46,33,20,16,12,50,35,18,30.16,30.10,30.01,10,10,10,16,10,22,0.00,0,,241
2012-12-23,60,44,27,34,25,16,78,51,27,30.18,30.11,30.05,10,10,10,16,5,,0.00,1,,228
2012-12-24,48,45,42,48,43,33,100,93,61,30.04,29.95,29.88,10,5,0,6,2,,0.51,8,Fog-Rain,171
2012-12-25,50,48,46,49,48,46,100,99,93,30.06,29.99,29.85,10,4,0,14,5,20,0.05,8,Fog-Rain,53
2012-12-26,60,50,37,58,44,28,100,84,65,29.84,29.64,29.51,10,8,3,25,14,39,1.19,5,Rain-Snow-Thunderstorm,226
2012-12-27,51,42,34,34,31,28,92,71,46,30.07,29.96,29.83,10,10,9,13,8,21,0.00,0,Snow,248
2012-12-28,46,39,32,35,31,28,89,73,54,30.18,30.07,29.96,10,10,10,7,3,,0.01,1,Rain,68
2012-12-29,51,44,35,41,35,22,100,82,52,30.11,29.87,29.79,10,8,3,24,8,31,0.43,5,Rain-Snow,283
2012-12-30,48,38,28,26,23,20,85,58,33,30.41,30.32,30.12,10,10,9,9,5,,0.00,0,Snow,259
2012-12-31,53,40,26,36,27,24,92,63,32,30.39,30.30,30.14,10,10,10,14,3,21,0.00,3,,222